x

Sentry Shoal (46131) Wave Buoy

9:00am - Wed 29th Mar 2017 All times are PDT. -7 hours from GMT.

  • Sig Wave height 3.6ft
  • Peak Period 5s
  • Wind
    16mph, 18mph gusts
  • Sea Temp 47°f
  • 空気 Temp 45°f
  • Sea Pressure 1007mb
  • Sentry Shoal
  • Sentry Shoal

More Historic Weather Station data

Upgrade to MSW Pro to gain access to the past 30 days of data for over 8000 Wavebouys and Weather Stations around the globe.

Join Pro

Comparision Forecast

View Surf forecast
   
Wed 03/29 9:00am 3.5ft 5s 16 18 mph 1007mb 47f 45f
8:00am 4.5ft 5s 18 22 mph 1007.5mb 47f 46f
7:00am 5.5ft 5s 25 29 mph 1007.6mb 47f 46f
6:00am 5.5ft 6s 25 31 mph 1009.2mb 47f 46f
5:00am 4ft 4s 27 34 mph 1010.4mb 47f 46f
4:00am 3.5ft 5s 20 25 mph 1011.5mb 47f 47f
3:00am 3.5ft 5s 18 22 mph 1012.9mb 47f 46f
2:00am 3.5ft 4s 22 27 mph 1013.7mb 47f 46f
1:00am 3ft 4s 18 22 mph 1015mb 47f 46f
12:00am 2.5ft 4s 13 18 mph 1016.1mb 47f 46f
Tue 03/28 11:00pm 2.5ft 4s 18 22 mph 1016.6mb 47f 47f
10:00pm 3ft 4s 18 22 mph 1017.2mb 47f 47f
9:00pm 3.5ft 5s 18 22 mph 1017.6mb 47f 47f
8:00pm 4ft 5s 11 13 mph 1017.9mb 47f 47f
7:00pm 5ft 6s 16 18 mph 1017.6mb 47f 47f
6:00pm 5ft 5s 16 20 mph 1017.7mb 47f 48f
5:00pm 5.5ft 6s 18 22 mph 1017.5mb 47f 48f
4:00pm 5.5ft 6s 16 20 mph 1017.8mb 47f 48f
3:00pm 6ft 6s 22 27 mph 1017.4mb 47f 47f
12:00pm 6ft 6s 25 31 mph 1016.7mb 47f 47f
11:00am 6ft 6s 25 29 mph 1016.7mb 47f 47f
10:00am 6.5ft 6s 25
mph
1016mb 46f 46f
9:00am 6.5ft 6s 25 31 mph 1015.4mb 46f 46f
8:00am 7ft 6s 22 29 mph 1015.2mb 46f 47f
7:00am 7ft 6s 29 38 mph 1015.1mb 46f 47f
6:00am 7ft 5s 34 40 mph 1014.4mb 46f 47f
5:00am 6ft 5s 29 38 mph 1014.7mb 46f 47f
4:00am 5.5ft 5s 22 27 mph 1016.3mb 46f 46f
3:00am 5ft 5s 29 36 mph 1015.7mb 46f 47f
2:00am 4.5ft 5s 27 31 mph 1017mb 46f 47f
1:00am 4.5ft 5s 22 27 mph 1017.2mb 46f 47f
12:00am 4.5ft 5s 25 31 mph 1017mb 46f 48f
Mon 03/27 11:00pm 4ft 5s 29 36 mph 1016.8mb 46f 47f
10:00pm 3.5ft 4s 20 25 mph 1017.6mb 46f 47f
9:00pm 4ft 4s 25 29 mph 1017.1mb 46f 47f
8:00pm 3.5ft 4s 22 27 mph 1017mb 46f 48f
7:00pm 3.5ft 5s 22 27 mph 1016.6mb 46f 49f
6:00pm 4ft 4s 22 27 mph 1016.4mb 47f 48f
5:00pm 4ft 4s 22 27 mph 1016.4mb 47f 48f
4:00pm 4ft 4s 25 29 mph 1016mb 47f 48f
3:00pm 4.5ft 4s 22 27 mph 1016.1mb 46f 47f
2:00pm 4.5ft 5s 25 27 mph 1016.3mb 47f 47f
1:00pm 4.5ft 5s 20 25 mph 1015.9mb 47f 47f
12:00pm 4.5ft 5s 22 29 mph 1015mb 47f 47f
11:00am 4ft 5s 25 29 mph 1014.4mb 46f 47f
10:00am 4.5ft 4s 25 31 mph 1013mb 46f 47f
9:00am 3.5ft 5s 25 29 mph 1012.6mb 46f 47f
8:00am 3.5ft 4s 20 25 mph 1012.1mb 46f 47f
7:00am 3ft 4s 20 25 mph 1011.2mb 46f 46f
6:00am 3.5ft 5s 18 20 mph 1010.7mb 46f 46f
5:00am 3.5ft 5s 18 22 mph 1009.9mb 46f 46f
4:00am 4ft 5s 20 27 mph 1009.2mb 46f 46f
3:00am 3.5ft 5s 18 22 mph 1009mb 46f 46f
2:00am 3.5ft 5s 22 27 mph 1008.5mb 46f 46f
1:00am 3.5ft 5s 16 22 mph 1008.3mb 46f 46f
12:00am 3.5ft 5s 18 22 mph 1007.7mb 46f 46f
Sun 03/26 11:00pm 3.5ft 5s 18 22 mph 1007.3mb 46f 46f
10:00pm 3.5ft 5s 20 25 mph 1006.4mb 46f 46f
9:00pm 3.5ft 4s 22 27 mph 1005.7mb 46f 46f
8:00pm 3.5ft 5s 20 25 mph 1005.4mb 46f 46f
7:00pm 4.5ft 6s 20 25 mph 1005.1mb 46f 46f
6:00pm 5ft 6s 18 22 mph 1005mb 46f 46f
5:00pm 5ft 6s 20 22 mph 1005.1mb 46f 46f
4:00pm 6ft 6s 22 27 mph 1005mb 46f 45f
3:00pm 5ft 6s 22 29 mph 1005.3mb 46f 46f
2:00pm 5ft 6s 25 29 mph 1005.6mb 46f 44f
1:00pm 4.5ft 5s 27 29 mph 1005.9mb 46f 44f
12:00pm 4.5ft 5s 25 31 mph 1006.2mb 46f 44f
11:00am 4ft 5s 22 29 mph 1006.7mb 46f 44f
10:00am 4.5ft 5s 22 27 mph 1007.3mb 46f 43f
9:00am 4ft 5s 22 27 mph 1007.4mb 46f 44f
8:00am 4ft 5s 22 27 mph 1007.8mb 46f 45f
7:00am 3.5ft 4s 20 25 mph 1008.3mb 46f 46f
6:00am 3.5ft 4s 18 20 mph 1009mb 46f 45f
5:00am 2.5ft 4s 22 29 mph 1009.8mb 46f 45f
4:00am 2.5ft 3s 18 22 mph 1011.3mb 46f 45f
3:00am 2ft 3s 18 22 mph 1012.5mb 46f 45f
2:00am 2ft 4s 18 20 mph 1013.7mb 46f 45f
1:00am 1.3ft 3s 13 18 mph 1014.2mb 46f 45f
12:00am 1.3ft 3s 13 18 mph 1014.9mb 46f 45f
Sat 03/25 11:00pm 1.3ft 4s 9
mph
1015.3mb 46f 45f
10:00pm 1.6ft 4s 13 16 mph 1015.5mb 46f 45f
9:00pm 2ft 4s 13 16 mph 1015.7mb 46f 46f
8:00pm 2ft 3s 20 22 mph 1015.9mb 46f 46f
7:00pm 1.6ft 4s 18 22 mph 1016mb 46f 47f
6:00pm 2ft 3s 13 18 mph 1016.3mb 46f 47f